createdAt,value
2018-05-09T00:00:30.122Z,69.13
2018-05-09T00:01:30.021Z,69.42
2018-05-09T00:02:29.933Z,69.70
2018-05-09T00:03:29.874Z,70.09
2018-05-09T00:04:29.853Z,70.47
2018-05-09T00:05:29.662Z,70.34
2018-05-09T00:06:29.580Z,70.81
2018-05-09T00:07:29.485Z,70.53
2018-05-09T00:08:29.425Z,70.34
2018-05-09T00:09:29.304Z,70.43
2018-05-09T00:10:29.213Z,70.53
2018-05-09T00:11:29.126Z,70.28
2018-05-09T00:12:29.036Z,70.72
2018-05-09T00:13:28.977Z,70.62
2018-05-09T00:14:28.856Z,70.62
2018-05-09T00:15:28.772Z,71.30
2018-05-09T00:16:28.677Z,71.11
2018-05-09T00:17:28.589Z,71.30
2018-05-09T00:18:28.533Z,71.39
2018-05-09T00:19:28.408Z,70.72
2018-05-09T00:20:28.318Z,70.62
2018-05-09T00:21:28.239Z,70.72
2018-05-09T00:22:28.139Z,71.01
2018-05-09T00:23:28.079Z,71.39
2018-05-09T00:24:27.965Z,70.62
2018-05-09T00:25:27.872Z,71.30
2018-05-09T00:26:27.782Z,71.48
2018-05-09T00:27:27.692Z,71.30
2018-05-09T00:28:27.632Z,71.30
2018-05-09T00:29:27.513Z,73.11
2018-05-09T00:30:27.425Z,74.04
2018-05-09T00:31:27.337Z,74.51
2018-05-09T00:32:27.243Z,74.80
2018-05-09T00:33:27.188Z,74.95
2018-05-09T00:34:27.066Z,75.52
2018-05-09T00:35:26.975Z,76.00
2018-05-09T00:36:26.886Z,77.15
2018-05-09T00:37:26.795Z,77.34
2018-05-09T00:38:26.738Z,77.92
2018-05-09T00:39:26.614Z,77.87
2018-05-09T00:40:26.527Z,78.45
2018-05-09T00:41:26.436Z,77.97
2018-05-09T00:42:26.360Z,79.02
2018-05-09T00:43:26.292Z,78.45
2018-05-09T00:44:26.169Z,78.07
2018-05-09T00:45:26.079Z,81.70
2018-05-09T00:46:25.990Z,80.17
2018-05-09T00:47:25.900Z,80.27
2018-05-09T00:48:25.841Z,80.84
2018-05-09T00:49:25.718Z,80.93
2018-05-09T00:50:25.628Z,81.60
2018-05-09T00:51:25.540Z,81.22
2018-05-09T00:52:25.468Z,81.56
2018-05-09T00:53:25.378Z,80.32
2018-05-09T00:54:25.296Z,82.71
2018-05-09T00:55:25.176Z,83.47
2018-05-09T00:56:25.086Z,82.71
2018-05-09T00:57:24.997Z,81.95
2018-05-09T00:58:24.908Z,84.23
2018-05-09T00:59:24.846Z,84.72
2018-05-09T01:00:24.732Z,83.76
2018-05-09T01:01:24.636Z,85.53
2018-05-09T01:02:24.548Z,86.49
2018-05-09T01:03:24.460Z,85.15
2018-05-09T01:04:24.399Z,83.81
2018-05-09T01:05:24.276Z,83.76
2018-05-09T01:06:24.185Z,84.20
2018-05-09T01:07:24.095Z,85.72
2018-05-09T01:08:24.007Z,84.00
2018-05-09T01:09:23.944Z,84.96
2018-05-09T01:10:23.828Z,85.44
2018-05-09T01:11:23.732Z,85.53
2018-05-09T01:12:23.642Z,84.86
2018-05-09T01:13:23.632Z,83.62
2018-05-09T01:14:23.507Z,84.20
2018-05-09T01:15:23.372Z,84.00
2018-05-09T01:16:23.281Z,83.95
2018-05-09T01:17:23.191Z,83.67
2018-05-09T01:18:23.102Z,83.18
2018-05-09T01:19:23.041Z,83.86
2018-05-09T01:20:22.918Z,84.91
2018-05-09T01:21:22.826Z,82.81
2018-05-09T01:22:22.737Z,83.09
2018-05-09T01:23:22.648Z,83.38
2018-05-09T01:24:22.590Z,83.86
2018-05-09T01:25:22.468Z,81.76
2018-05-09T01:26:22.377Z,83.47
2018-05-09T01:27:22.287Z,81.89
2018-05-09T01:28:22.195Z,82.08
2018-05-09T01:29:22.141Z,82.18
2018-05-09T01:30:22.022Z,80.93
2018-05-09T01:31:21.925Z,81.22
2018-05-09T01:32:21.831Z,80.27
2018-05-09T01:33:21.740Z,83.13
2018-05-09T01:34:21.681Z,83.42
2018-05-09T01:35:21.565Z,82.46
2018-05-09T01:36:21.471Z,79.60
2018-05-09T01:37:21.379Z,77.53
2018-05-09T01:38:21.292Z,77.72
2018-05-09T01:39:21.232Z,78.01
2018-05-09T01:40:21.109Z,76.86
2018-05-09T01:41:21.021Z,77.15
2018-05-09T01:42:20.931Z,76.00
2018-05-09T01:43:20.839Z,76.42
2018-05-09T01:44:20.780Z,75.85
2018-05-09T01:45:20.677Z,76.14
2018-05-09T01:46:20.570Z,74.22
2018-05-09T01:47:20.478Z,73.84
2018-05-09T01:48:20.490Z,73.84
2018-05-09T01:49:20.329Z,73.46
2018-05-09T01:50:20.210Z,73.59
2018-05-09T01:51:20.117Z,72.92
2018-05-09T01:52:20.031Z,72.83
2018-05-09T01:53:19.942Z,71.77
2018-05-09T01:54:19.882Z,71.97
2018-05-09T01:55:19.851Z,72.06
2018-05-09T01:56:19.667Z,71.77
2018-05-09T01:57:19.575Z,71.58
2018-05-09T01:58:19.486Z,72.44
2018-05-09T01:59:19.435Z,71.68
2018-05-09T02:00:19.310Z,71.20
2018-05-09T02:01:19.217Z,71.39
2018-05-09T02:02:19.224Z,71.77
2018-05-09T02:03:19.040Z,71.77
2018-05-09T02:04:18.949Z,71.30
2018-05-09T02:05:18.887Z,71.87
2018-05-09T02:06:18.767Z,71.20
2018-05-09T02:07:18.676Z,71.33
2018-05-09T02:08:18.589Z,71.20
2018-05-09T02:09:18.593Z,71.39
2018-05-09T02:10:18.436Z,71.23
2018-05-09T02:11:18.320Z,71.11
2018-05-09T02:12:18.229Z,71.30
2018-05-09T02:13:18.135Z,71.48
2018-05-09T02:14:18.051Z,72.06
2018-05-09T02:15:18.019Z,72.06
2018-05-09T02:16:17.883Z,72.06
2018-05-09T02:17:17.779Z,71.77
2018-05-09T02:18:17.688Z,71.97
2018-05-09T02:19:17.599Z,71.77
2018-05-09T02:20:17.541Z,72.34
2018-05-09T02:21:17.420Z,72.25
2018-05-09T02:22:17.330Z,72.44
2018-05-09T02:23:17.239Z,72.06
2018-05-09T02:24:17.150Z,72.63
2018-05-09T02:25:17.089Z,72.73
2018-05-09T02:26:16.970Z,72.06
2018-05-09T02:27:16.898Z,72.73
2018-05-09T02:28:16.791Z,72.92
2018-05-09T02:29:16.698Z,72.92
2018-05-09T02:30:16.647Z,73.02
2018-05-09T02:31:16.594Z,73.02
2018-05-09T02:32:16.432Z,72.92
2018-05-09T02:33:16.343Z,73.40
2018-05-09T02:34:16.251Z,73.30
2018-05-09T02:35:16.192Z,73.40
2018-05-09T02:36:16.068Z,73.69
2018-05-09T02:37:15.982Z,73.69
2018-05-09T02:38:15.895Z,73.40
2018-05-09T02:39:15.807Z,74.26
2018-05-09T02:40:15.742Z,73.97
2018-05-09T02:41:15.625Z,73.88
2018-05-09T02:42:15.534Z,74.16
2018-05-09T02:43:15.443Z,74.26
2018-05-09T02:44:15.354Z,73.97
2018-05-09T02:45:15.294Z,73.97
2018-05-09T02:46:15.174Z,74.26
2018-05-09T02:47:15.091Z,74.74
2018-05-09T02:48:14.998Z,74.84
2018-05-09T02:49:14.907Z,74.45
2018-05-09T02:50:14.848Z,74.74
2018-05-09T02:51:14.728Z,74.93
2018-05-09T02:52:14.637Z,76.18
2018-05-09T02:53:14.547Z,75.66
2018-05-09T02:54:14.456Z,75.70
2018-05-09T02:55:14.409Z,75.79
2018-05-09T02:56:14.275Z,75.37
2018-05-09T02:57:14.188Z,76.08
2018-05-09T02:58:14.097Z,75.95
2018-05-09T02:59:14.233Z,75.66
2018-05-09T03:00:13.949Z,76.33
2018-05-09T03:01:13.833Z,76.42
2018-05-09T03:02:13.742Z,77.19
2018-05-09T03:03:13.649Z,76.62
2018-05-09T03:04:13.558Z,77.38
2018-05-09T03:05:13.501Z,77.38
2018-05-09T03:06:13.476Z,77.19
2018-05-09T03:07:13.290Z,77.09
2018-05-09T03:08:13.197Z,77.86
2018-05-09T03:09:13.118Z,78.14
2018-05-09T03:10:13.056Z,78.05
2018-05-09T03:11:12.931Z,78.14
2018-05-09T03:12:12.837Z,78.63
2018-05-09T03:13:12.748Z,79.00
2018-05-09T03:14:12.661Z,78.91
2018-05-09T03:15:12.573Z,78.81
2018-05-09T03:16:12.510Z,79.10
2018-05-09T03:17:12.389Z,79.10
2018-05-09T03:18:12.298Z,80.06
2018-05-09T03:19:12.207Z,79.87
2018-05-09T03:20:12.226Z,80.44
2018-05-09T03:21:12.060Z,81.02
2018-05-09T03:22:11.938Z,81.30
2018-05-09T03:23:11.849Z,81.11
2018-05-09T03:24:11.760Z,81.36
2018-05-09T03:25:11.672Z,81.26
2018-05-09T03:26:11.705Z,81.55
2018-05-09T03:27:11.489Z,82.12
2018-05-09T03:28:11.399Z,82.31
2018-05-09T03:29:11.311Z,82.70
2018-05-09T03:30:11.235Z,82.60
2018-05-09T03:31:11.161Z,83.17
2018-05-09T03:32:11.042Z,83.27
2018-05-09T03:33:10.955Z,83.56
2018-05-09T03:34:10.860Z,82.98
2018-05-09T03:35:10.770Z,83.94
2018-05-09T03:36:10.707Z,83.94
2018-05-09T03:37:10.588Z,83.94
2018-05-09T03:38:10.499Z,84.03
2018-05-09T03:39:10.408Z,84.32
2018-05-09T03:40:10.345Z,84.13
2018-05-09T03:41:10.256Z,83.94
2018-05-09T03:42:10.139Z,84.70
2018-05-09T03:43:10.051Z,84.61
2018-05-09T03:44:09.957Z,84.13
2018-05-09T03:45:09.868Z,84.99
2018-05-09T03:46:09.809Z,85.81
2018-05-09T03:47:09.686Z,86.47
2018-05-09T03:48:09.595Z,86.96
2018-05-09T03:49:09.508Z,86.96
2018-05-09T03:50:09.417Z,87.43
2018-05-09T03:51:09.377Z,87.53
2018-05-09T03:52:09.239Z,88.73
2018-05-09T03:53:09.146Z,89.01
2018-05-09T03:54:09.056Z,89.06
2018-05-09T03:55:08.965Z,88.77
2018-05-09T03:56:08.909Z,88.68
2018-05-09T03:57:08.787Z,88.68
2018-05-09T03:58:08.697Z,87.82
2018-05-09T03:59:08.606Z,88.58
2018-05-09T04:00:08.517Z,88.01
2018-05-09T04:01:08.457Z,88.68
2018-05-09T04:02:08.338Z,88.39
2018-05-09T04:03:08.244Z,88.87
2018-05-09T04:04:08.156Z,88.87
2018-05-09T04:05:08.065Z,89.73
2018-05-09T04:06:08.009Z,89.34
2018-05-09T04:07:07.961Z,89.15
2018-05-09T04:08:07.794Z,89.34
2018-05-09T04:09:07.707Z,89.82
2018-05-09T04:10:07.613Z,89.06
2018-05-09T04:11:07.553Z,89.44
2018-05-09T04:12:07.427Z,89.73
2018-05-09T04:13:07.380Z,89.25
2018-05-09T04:14:07.252Z,89.25
2018-05-09T04:15:07.161Z,89.10
2018-05-09T04:16:07.070Z,89.39
2018-05-09T04:17:07.009Z,89.48
2018-05-09T04:18:06.892Z,89.01
2018-05-09T04:19:06.797Z,89.48
2018-05-09T04:20:06.706Z,88.91
2018-05-09T04:21:06.617Z,89.39
2018-05-09T04:22:06.557Z,89.77
2018-05-09T04:23:06.435Z,89.48
2018-05-09T04:24:06.351Z,89.25
2018-05-09T04:25:06.254Z,89.48
2018-05-09T04:26:06.164Z,89.48
2018-05-09T04:27:06.109Z,89.39
2018-05-09T04:28:06.034Z,89.73
2018-05-09T04:29:05.895Z,90.06
2018-05-09T04:30:05.800Z,90.59
2018-05-09T04:31:05.715Z,89.87
2018-05-09T04:32:05.654Z,89.58
2018-05-09T04:33:05.529Z,89.67
2018-05-09T04:34:05.439Z,89.96
2018-05-09T04:35:05.349Z,90.63
2018-05-09T04:36:05.259Z,90.25
2018-05-09T04:37:05.200Z,90.68
2018-05-09T04:38:05.077Z,90.20
2018-05-09T04:39:04.989Z,90.53
2018-05-09T04:40:04.899Z,90.34
2018-05-09T04:41:04.805Z,89.87
2018-05-09T04:42:04.780Z,89.87
2018-05-09T04:43:04.625Z,91.68
2018-05-09T04:44:04.536Z,90.16
2018-05-09T04:45:04.448Z,91.11
2018-05-09T04:46:04.352Z,90.92
2018-05-09T04:47:04.295Z,90.06
2018-05-09T04:48:04.173Z,89.87
2018-05-09T04:49:04.081Z,90.25
2018-05-09T04:50:04.084Z,89.87
2018-05-09T04:51:03.902Z,89.48
2018-05-09T04:52:03.845Z,90.10
2018-05-09T04:53:03.720Z,88.86
2018-05-09T04:54:03.629Z,88.29
2018-05-09T04:55:03.539Z,87.81
2018-05-09T04:56:03.449Z,86.94
2018-05-09T04:57:05.760Z,87.85
2018-05-09T04:58:03.270Z,86.61
2018-05-09T04:59:03.182Z,87.08
2018-05-09T05:00:03.089Z,85.84
2018-05-09T05:01:03.004Z,84.98
2018-05-09T05:02:02.940Z,85.55
2018-05-09T05:03:02.827Z,86.22
2018-05-09T05:04:02.823Z,86.51
2018-05-09T05:05:02.643Z,86.61
2018-05-09T05:06:02.555Z,86.90
2018-05-09T05:07:02.590Z,86.99
2018-05-09T05:08:02.374Z,87.08
2018-05-09T05:09:02.287Z,88.04
2018-05-09T05:10:02.194Z,86.70
2018-05-09T05:11:02.208Z,87.51
2018-05-09T05:12:02.047Z,86.46
2018-05-09T05:13:01.927Z,84.64
2018-05-09T05:14:01.836Z,83.97
2018-05-09T05:15:01.766Z,83.59
2018-05-09T05:16:01.663Z,82.86
2018-05-09T05:17:01.603Z,83.44
2018-05-09T05:18:01.575Z,83.82
2018-05-09T05:19:01.393Z,83.92
2018-05-09T05:20:01.305Z,84.78
2018-05-09T05:21:01.218Z,83.15
2018-05-09T05:22:01.135Z,83.82
2018-05-09T05:23:01.070Z,84.45
2018-05-09T05:24:00.951Z,84.74
2018-05-09T05:25:00.950Z,84.26
2018-05-09T05:26:00.770Z,85.41
2018-05-09T05:27:00.716Z,84.83
2018-05-09T05:28:00.623Z,84.74
2018-05-09T05:29:00.505Z,85.21
2018-05-09T05:30:00.419Z,83.97
2018-05-09T05:31:00.331Z,84.30
2018-05-09T05:32:00.337Z,87.08
2018-05-09T05:33:00.183Z,84.49
2018-05-09T05:34:00.065Z,86.02
2018-05-09T05:34:59.978Z,84.88
2018-05-09T05:35:59.901Z,84.49
2018-05-09T05:36:59.800Z,85.45
2018-05-09T05:37:59.747Z,84.88
2018-05-09T05:38:59.729Z,84.20
2018-05-09T05:39:59.533Z,84.20
2018-05-09T05:40:59.441Z,84.68
2018-05-09T05:41:59.355Z,84.88
2018-05-09T05:42:59.301Z,85.54
2018-05-09T05:43:59.178Z,85.25
2018-05-09T05:44:59.208Z,84.58
2018-05-09T05:45:59.095Z,85.45
2018-05-09T05:46:58.913Z,84.68
2018-05-09T05:47:58.861Z,84.39
2018-05-09T05:48:58.738Z,83.67
2018-05-09T05:49:58.646Z,84.05
2018-05-09T05:50:58.561Z,84.53
2018-05-09T05:51:58.487Z,84.44
2018-05-09T05:52:58.505Z,83.19
2018-05-09T05:53:58.300Z,84.15
2018-05-09T05:54:58.213Z,82.81
2018-05-09T05:55:58.140Z,82.14
2018-05-09T05:56:58.032Z,82.71
2018-05-09T05:57:57.970Z,82.23
2018-05-09T05:58:57.949Z,82.75
2018-05-09T05:59:57.775Z,82.75
2018-05-09T06:00:57.679Z,82.75
2018-05-09T06:01:57.591Z,82.85
2018-05-09T06:02:57.534Z,83.23
2018-05-09T06:03:57.413Z,82.94
2018-05-09T06:04:57.330Z,82.56
2018-05-09T06:05:57.241Z,82.65
2018-05-09T06:06:57.150Z,82.37
2018-05-09T06:07:57.176Z,83.23
2018-05-09T06:08:56.977Z,83.14
2018-05-09T06:09:56.893Z,83.71
2018-05-09T06:10:56.804Z,82.85
2018-05-09T06:11:56.716Z,83.91
2018-05-09T06:12:56.658Z,84.28
2018-05-09T06:13:56.539Z,84.00
2018-05-09T06:14:56.452Z,83.81
2018-05-09T06:15:56.363Z,83.23
2018-05-09T06:16:56.275Z,83.71
2018-05-09T06:17:56.220Z,83.52
2018-05-09T06:18:56.110Z,83.81
2018-05-09T06:19:56.011Z,82.75
2018-05-09T06:20:55.925Z,82.85
2018-05-09T06:21:55.836Z,83.23
2018-05-09T06:22:55.779Z,83.14
2018-05-09T06:23:55.727Z,83.81
2018-05-09T06:24:55.573Z,83.23
2018-05-09T06:25:55.487Z,82.42
2018-05-09T06:26:55.397Z,82.62
2018-05-09T06:27:55.344Z,83.14
2018-05-09T06:28:55.224Z,83.23
2018-05-09T06:29:55.138Z,83.14
2018-05-09T06:30:55.134Z,82.14
2018-05-09T06:31:54.957Z,82.65
2018-05-09T06:32:54.903Z,82.42
2018-05-09T06:33:54.780Z,82.56
2018-05-09T06:34:54.697Z,83.14
2018-05-09T06:35:54.606Z,82.27
2018-05-09T06:36:54.516Z,80.93
2018-05-09T06:37:54.431Z,81.60
2018-05-09T06:38:54.375Z,80.58
2018-05-09T06:39:54.249Z,80.11
2018-05-09T06:40:54.166Z,78.70
2018-05-09T06:41:54.079Z,78.52
2018-05-09T06:42:53.994Z,78.61
2018-05-09T06:43:53.940Z,79.61
2018-05-09T06:44:53.817Z,77.44
2018-05-09T06:45:53.726Z,75.32
2018-05-09T06:46:53.639Z,75.52
2018-05-09T06:47:53.555Z,76.04
2018-05-09T06:48:53.501Z,73.83
2018-05-09T06:49:53.425Z,73.35
2018-05-09T06:50:53.295Z,73.00
2018-05-09T06:51:53.205Z,72.03
2018-05-09T06:52:53.120Z,73.19
2018-05-09T06:53:53.064Z,70.98
2018-05-09T06:54:52.954Z,70.92
2018-05-09T06:55:52.861Z,71.20
2018-05-09T06:56:52.779Z,70.40
2018-05-09T06:57:52.692Z,72.09
2018-05-09T06:58:52.639Z,71.61
2018-05-09T06:59:52.553Z,72.96
2018-05-09T07:00:52.436Z,71.08
2018-05-09T07:01:52.352Z,72.03
2018-05-09T07:02:52.273Z,72.42
2018-05-09T07:03:52.214Z,70.98
2018-05-09T07:04:52.101Z,69.82
2018-05-09T07:05:52.015Z,69.85
2018-05-09T07:06:51.934Z,68.74
2018-05-09T07:07:51.847Z,68.38
2018-05-09T07:08:51.793Z,67.23
2018-05-09T07:09:51.689Z,65.81
2018-05-09T07:10:51.599Z,65.66
2018-05-09T07:11:51.513Z,64.76
2018-05-09T07:12:51.436Z,66.11
2018-05-09T07:13:51.396Z,65.50
2018-05-09T07:14:51.265Z,66.10
2018-05-09T07:15:51.179Z,67.97
2018-05-09T07:16:51.099Z,68.22
2018-05-09T07:17:51.018Z,68.80
2018-05-09T07:18:50.966Z,69.47
2018-05-09T07:19:50.850Z,67.93
2018-05-09T07:20:50.768Z,68.90
2018-05-09T07:21:50.698Z,68.67
2018-05-09T07:22:50.604Z,70.88
2018-05-09T07:23:50.555Z,72.25
2018-05-09T07:24:50.440Z,73.60
2018-05-09T07:25:50.356Z,73.06
2018-05-09T07:26:50.277Z,71.65
2018-05-09T07:27:50.189Z,69.57
2018-05-09T07:28:50.141Z,69.79
2018-05-09T07:29:50.127Z,67.77
2018-05-09T07:30:49.948Z,67.42
2018-05-09T07:31:49.863Z,66.07
2018-05-09T07:32:49.781Z,67.19
2018-05-09T07:33:49.727Z,66.52
2018-05-09T07:34:49.615Z,66.62
2018-05-09T07:35:49.541Z,65.75
2018-05-09T07:36:49.559Z,66.42
2018-05-09T07:37:49.369Z,65.94
2018-05-09T07:38:49.316Z,66.33
2018-05-09T07:39:49.209Z,66.04
2018-05-09T07:40:49.124Z,67.10
2018-05-09T07:41:49.041Z,66.71
2018-05-09T07:42:48.959Z,66.55
2018-05-09T07:43:48.977Z,65.30
2018-05-09T07:44:48.823Z,65.50
2018-05-09T07:45:48.713Z,67.33
2018-05-09T07:46:48.633Z,65.14
2018-05-09T07:47:48.595Z,64.40
2018-05-09T07:48:48.466Z,64.43
2018-05-09T07:49:48.419Z,64.18
2018-05-09T07:50:48.392Z,63.73
2018-05-09T07:51:48.220Z,65.08
2018-05-09T07:52:48.139Z,65.66
2018-05-09T07:53:48.060Z,65.43
2018-05-09T07:54:48.004Z,66.78
2018-05-09T07:55:47.893Z,66.04
2018-05-09T07:56:47.811Z,65.11
2018-05-09T07:57:47.823Z,63.50
2018-05-09T07:58:47.646Z,61.61
2018-05-09T07:59:47.594Z,60.68
2018-05-09T08:00:47.485Z,59.13
2018-05-09T08:01:47.401Z,61.54
2018-05-09T08:02:47.321Z,61.64
2018-05-09T08:03:47.237Z,60.96
2018-05-09T08:04:47.281Z,61.13
2018-05-09T08:05:47.073Z,60.48
2018-05-09T08:06:46.995Z,58.65
2018-05-09T08:07:46.912Z,60.13
2018-05-09T08:08:46.830Z,59.55
2018-05-09T08:09:46.781Z,59.13
2018-05-09T08:10:46.681Z,58.75
2018-05-09T08:11:46.698Z,58.00
2018-05-09T08:12:46.555Z,58.65
2018-05-09T08:13:46.425Z,58.61
2018-05-09T08:14:46.374Z,57.16
2018-05-09T08:15:46.262Z,57.84
2018-05-09T08:16:46.186Z,57.04
2018-05-09T08:17:46.101Z,58.58
2018-05-09T08:18:46.115Z,58.84
2018-05-09T08:19:45.972Z,59.39
2018-05-09T08:20:45.859Z,60.00
2018-05-09T08:21:45.780Z,60.80
2018-05-09T08:22:45.698Z,61.67
2018-05-09T08:23:45.705Z,60.00
2018-05-09T08:24:45.574Z,60.03
2018-05-09T08:25:45.554Z,59.38
2018-05-09T08:26:45.385Z,56.56
2018-05-09T08:27:45.295Z,56.68
2018-05-09T08:28:45.216Z,58.07
2018-05-09T08:29:45.164Z,59.32
2018-05-09T08:30:45.053Z,58.68
2018-05-09T08:31:44.973Z,59.52
2018-05-09T08:32:44.987Z,61.00
2018-05-09T08:33:44.824Z,60.45
2018-05-09T08:34:44.765Z,58.26
2018-05-09T08:35:44.648Z,59.39
2018-05-09T08:36:44.598Z,59.97
2018-05-09T08:37:44.489Z,60.80
2018-05-09T08:38:44.411Z,60.26
2018-05-09T08:39:44.457Z,57.59
2018-05-09T08:40:44.249Z,56.36
2018-05-09T08:41:44.165Z,56.39
2018-05-09T08:42:44.087Z,57.67
2018-05-09T08:43:44.059Z,58.57
2018-05-09T08:44:43.956Z,55.29
2018-05-09T08:45:43.845Z,55.45
2018-05-09T08:46:43.761Z,56.41
2018-05-09T08:47:43.684Z,57.09
2018-05-09T08:48:43.601Z,55.77
2018-05-09T08:49:43.528Z,54.93
2018-05-09T08:50:43.476Z,52.73
2018-05-09T08:51:43.363Z,50.94
2018-05-09T08:52:43.282Z,49.99
2018-05-09T08:53:43.203Z,49.05
2018-05-09T08:54:43.127Z,49.75
2018-05-09T08:55:43.075Z,47.83
2018-05-09T08:56:42.964Z,47.83
2018-05-09T08:57:42.883Z,47.13
2018-05-09T08:58:42.805Z,46.72
2018-05-09T08:59:42.729Z,48.66
2018-05-09T09:00:42.678Z,47.69
2018-05-09T09:01:42.570Z,48.49
2018-05-09T09:02:42.777Z,48.59
2018-05-09T09:03:42.411Z,46.36
2018-05-09T09:04:42.333Z,47.03
2018-05-09T09:05:42.287Z,46.86
2018-05-09T09:06:42.176Z,47.89
2018-05-09T09:07:42.193Z,49.41
2018-05-09T09:08:42.020Z,49.22
2018-05-09T09:09:41.942Z,49.29
2018-05-09T09:10:41.898Z,50.62
2018-05-09T09:11:41.785Z,50.65
2018-05-09T09:12:41.710Z,49.29
2018-05-09T09:13:41.635Z,49.12
2018-05-09T09:14:41.554Z,49.22
2018-05-09T09:15:41.570Z,48.90
2018-05-09T09:16:41.396Z,48.22
2018-05-09T09:17:41.323Z,48.74
2018-05-09T09:18:41.260Z,49.68
2018-05-09T09:19:41.165Z,51.93
2018-05-09T09:20:41.120Z,52.94
2018-05-09T09:21:41.012Z,54.97
2018-05-09T09:22:40.933Z,54.90
2018-05-09T09:23:40.856Z,53.77
2018-05-09T09:24:40.779Z,52.70
2018-05-09T09:25:40.728Z,52.70
2018-05-09T09:26:40.621Z,53.83
2018-05-09T09:27:40.541Z,54.13
2018-05-09T09:28:40.467Z,55.55
2018-05-09T09:29:40.388Z,55.42
2018-05-09T09:30:40.343Z,54.77
2018-05-09T09:31:40.235Z,55.77
2018-05-09T09:32:40.153Z,55.29
2018-05-09T09:33:40.075Z,53.83
2018-05-09T09:34:39.995Z,54.61
2018-05-09T09:35:40.051Z,55.78
2018-05-09T09:36:39.840Z,55.74
2018-05-09T09:37:39.759Z,53.83
2018-05-09T09:38:39.679Z,53.86
2018-05-09T09:39:39.603Z,54.85
2018-05-09T09:40:39.557Z,52.85
2018-05-09T09:41:39.447Z,52.78
2018-05-09T09:42:39.458Z,50.74
2018-05-09T09:43:39.291Z,49.61
2018-05-09T09:44:39.208Z,50.67
2018-05-09T09:45:39.158Z,50.55
2018-05-09T09:46:39.052Z,50.98
2018-05-09T09:47:38.972Z,52.67
2018-05-09T09:48:38.891Z,55.13
2018-05-09T09:49:38.911Z,55.59
2018-05-09T09:50:38.795Z,57.78
2018-05-09T09:51:38.653Z,57.27
2018-05-09T09:52:38.576Z,57.94
2018-05-09T09:53:38.497Z,58.91
2018-05-09T09:54:38.418Z,58.52
2018-05-09T09:55:38.368Z,58.33
2018-05-09T09:56:38.366Z,59.39
2018-05-09T09:57:38.177Z,61.71
2018-05-09T09:58:38.098Z,62.06
2018-05-09T09:59:38.023Z,61.68
2018-05-09T10:00:37.938Z,60.13
2018-05-09T10:01:37.915Z,59.84
2018-05-09T10:02:37.775Z,60.61
2018-05-09T10:03:37.795Z,59.52
2018-05-09T10:04:37.612Z,56.94
2018-05-09T10:05:37.532Z,54.55
2018-05-09T10:06:37.485Z,54.58
2018-05-09T10:07:37.368Z,53.93
2018-05-09T10:08:37.287Z,51.13
2018-05-09T10:09:37.206Z,52.70
2018-05-09T10:10:37.227Z,50.38
2018-05-09T10:11:37.074Z,50.98
2018-05-09T10:12:36.963Z,49.34
2018-05-09T10:13:36.884Z,51.35
2018-05-09T10:14:36.805Z,51.61
2018-05-09T10:15:36.721Z,51.81
2018-05-09T10:16:36.673Z,53.42
2018-05-09T10:17:36.665Z,54.55
2018-05-09T10:18:36.482Z,55.20
2018-05-09T10:19:36.397Z,57.20
2018-05-09T10:20:36.320Z,57.17
2018-05-09T10:21:36.268Z,58.14
2018-05-09T10:22:36.155Z,57.65
2018-05-09T10:23:36.076Z,56.26
2018-05-09T10:24:36.086Z,55.83
2018-05-09T10:25:35.910Z,53.67
2018-05-09T10:26:35.859Z,50.89
2018-05-09T10:27:35.748Z,51.20
2018-05-09T10:28:35.666Z,51.01
2018-05-09T10:29:35.587Z,49.29
2018-05-09T10:30:35.502Z,52.03
2018-05-09T10:31:35.497Z,49.15
2018-05-09T10:32:35.345Z,48.76
2018-05-09T10:33:35.263Z,47.81
2018-05-09T10:34:35.182Z,46.98
2018-05-09T10:35:35.102Z,45.27
2018-05-09T10:36:35.053Z,46.24
2018-05-09T10:37:34.942Z,47.60
2018-05-09T10:38:34.864Z,47.28
2018-05-09T10:39:34.780Z,49.12
2018-05-09T10:40:34.707Z,49.97
2018-05-09T10:41:34.654Z,50.14
2018-05-09T10:42:34.574Z,50.45
2018-05-09T10:43:34.558Z,50.70
2018-05-09T10:44:34.390Z,51.73
2018-05-09T10:45:34.307Z,51.25
2018-05-09T10:46:34.265Z,51.71
2018-05-09T10:47:34.160Z,51.73
2018-05-09T10:48:34.071Z,50.14
2018-05-09T10:49:33.991Z,51.04
2018-05-09T10:50:33.912Z,47.84
2018-05-09T10:51:33.864Z,48.71
2018-05-09T10:52:33.755Z,47.74
2018-05-09T10:53:33.675Z,48.90
2018-05-09T10:54:33.666Z,48.64
2018-05-09T10:55:33.519Z,48.66
2018-05-09T10:56:33.474Z,50.65
2018-05-09T10:57:33.360Z,51.28
2018-05-09T10:58:33.282Z,53.57
2018-05-09T10:59:33.203Z,54.68
2018-05-09T11:00:33.124Z,56.16
2018-05-09T11:01:33.078Z,59.13
2018-05-09T11:02:32.965Z,59.97
2018-05-09T11:03:32.886Z,59.94
2018-05-09T11:04:32.806Z,59.71
2018-05-09T11:05:32.729Z,56.74
2018-05-09T11:06:32.678Z,56.22
2018-05-09T11:07:32.566Z,55.89
2018-05-09T11:08:32.488Z,55.66
2018-05-09T11:09:32.408Z,52.49
2018-05-09T11:10:32.344Z,51.16
2018-05-09T11:11:32.248Z,50.94
2018-05-09T11:12:32.200Z,51.98
2018-05-09T11:13:32.084Z,52.73
2018-05-09T11:14:32.012Z,51.64
2018-05-09T11:15:31.922Z,53.50
2018-05-09T11:16:31.876Z,55.67
2018-05-09T11:17:31.794Z,52.05
2018-05-09T11:18:31.687Z,51.76
2018-05-09T11:19:31.604Z,52.19
2018-05-09T11:20:31.526Z,54.97
2018-05-09T11:21:31.448Z,55.10
2018-05-09T11:22:31.400Z,54.84
2018-05-09T11:23:31.284Z,52.58
2018-05-09T11:24:31.262Z,51.61
2018-05-09T11:25:31.123Z,51.03
2018-05-09T11:26:31.045Z,50.28
2018-05-09T11:27:30.993Z,51.54
2018-05-09T11:28:30.882Z,51.64
2018-05-09T11:29:30.801Z,51.76
2018-05-09T11:30:30.721Z,52.48
2018-05-09T11:31:30.639Z,53.71
2018-05-09T11:32:30.590Z,54.75
2018-05-09T11:33:30.516Z,55.16
2018-05-09T11:34:30.399Z,54.46
2018-05-09T11:35:30.318Z,54.68
2018-05-09T11:36:30.241Z,56.20
2018-05-09T11:37:30.276Z,55.52
2018-05-09T11:38:30.080Z,56.43
2018-05-09T11:39:29.992Z,57.10
2018-05-09T11:40:29.915Z,56.62
2018-05-09T11:41:29.831Z,57.49
2018-05-09T11:42:29.780Z,56.81
2018-05-09T11:43:29.667Z,54.55
2018-05-09T11:44:29.589Z,53.13
2018-05-09T11:45:29.504Z,53.06
2018-05-09T11:46:29.425Z,51.03
2018-05-09T11:47:29.470Z,52.67
2018-05-09T11:48:29.258Z,50.70
2018-05-09T11:49:29.176Z,50.26
2018-05-09T11:50:29.094Z,50.99
2018-05-09T11:51:29.016Z,47.84
2018-05-09T11:52:28.960Z,48.64
2018-05-09T11:53:28.852Z,48.03
2018-05-09T11:54:28.769Z,47.74
2018-05-09T11:55:28.692Z,47.77
2018-05-09T11:56:28.613Z,50.18
2018-05-09T11:57:28.561Z,49.46
2018-05-09T11:58:28.448Z,51.95
2018-05-09T11:59:28.367Z,53.44
2018-05-09T12:00:28.283Z,54.38
2018-05-09T12:01:28.297Z,55.92
2018-05-09T12:02:28.212Z,55.56
2018-05-09T12:03:28.041Z,55.33
2018-05-09T12:04:27.960Z,55.65
2018-05-09T12:05:27.885Z,53.55
2018-05-09T12:06:27.799Z,51.95
2018-05-09T12:07:27.753Z,50.65
2018-05-09T12:08:27.729Z,49.65
2018-05-09T12:09:27.556Z,50.07
2018-05-09T12:10:27.564Z,49.39
2018-05-09T12:11:27.392Z,47.89
2018-05-09T12:12:27.340Z,47.50
2018-05-09T12:13:27.228Z,45.95
2018-05-09T12:14:27.155Z,47.14
2018-05-09T12:15:27.173Z,50.02
2018-05-09T12:16:26.984Z,49.49
2018-05-09T12:17:26.937Z,47.74
2018-05-09T12:18:26.828Z,45.51
2018-05-09T12:19:26.744Z,48.52
2018-05-09T12:20:26.667Z,46.41
2018-05-09T12:21:26.586Z,47.50
2018-05-09T12:22:26.630Z,45.95
2018-05-09T12:23:26.425Z,47.26
2018-05-09T12:24:26.423Z,46.31
2018-05-09T12:25:26.263Z,46.87
2018-05-09T12:26:26.184Z,47.47
2018-05-09T12:27:26.104Z,47.16
2018-05-09T12:28:26.055Z,49.63
2018-05-09T12:29:26.036Z,49.34
2018-05-09T12:30:25.864Z,46.24
2018-05-09T12:31:25.786Z,46.24
2018-05-09T12:32:25.710Z,45.81
2018-05-09T12:33:25.657Z,46.77
2018-05-09T12:34:25.555Z,47.58
2018-05-09T12:35:25.468Z,49.19
2018-05-09T12:36:25.500Z,49.73
2018-05-09T12:37:25.311Z,49.99
2018-05-09T12:38:25.267Z,51.15
2018-05-09T12:39:25.160Z,52.57
2018-05-09T12:40:25.069Z,53.13
2018-05-09T12:41:24.989Z,54.69
2018-05-09T12:42:24.913Z,53.56
2018-05-09T12:43:24.955Z,52.45
2018-05-09T12:44:24.752Z,50.81
2018-05-09T12:45:24.665Z,52.84
2018-05-09T12:46:24.588Z,50.55
2018-05-09T12:47:24.505Z,49.22
2018-05-09T12:48:24.451Z,49.02
2018-05-09T12:49:24.344Z,48.47
2018-05-09T12:50:24.355Z,49.44
2018-05-09T12:51:24.181Z,47.58